Time;durP1;ratioP1;P1;durP2;ratioP2;P2;SDS_P1;SDS_P2;PMS_P1;PMS_P2;Temp;Humidity;BMP_temperature;BMP_pressure;BME280_temperature;BME280_humidity;BME280_pressure;Samples;Min_cycle;Max_cycle;Signal;HPM_P1;HPM_P2
2021/01/11 00:01:23;;;;;;;52.78;24.10;;;-5.20;99.90;;;;;;5073118;28;20018;-68
2021/01/11 00:03:49;;;;;;;54.13;24.65;;;-5.20;99.90;;;;;;5072070;28;20401;-68
2021/01/11 00:06:14;;;;;;;50.05;24.38;;;-5.20;99.90;;;;;;5072719;28;20025;-68
2021/01/11 00:08:40;;;;;;;51.38;23.73;;;-5.20;99.90;;;;;;5072598;28;20060;-68
2021/01/11 00:11:06;;;;;;;51.80;23.90;;;-5.20;99.90;;;;;;5072646;28;20756;-68
2021/01/11 00:13:31;;;;;;;48.63;22.50;;;-5.30;99.90;;;;;;5071932;28;20082;-66
2021/01/11 00:15:57;;;;;;;46.20;21.63;;;-5.30;99.90;;;;;;5071950;28;20464;-67
2021/01/11 00:18:22;;;;;;;55.65;22.98;;;-5.40;99.90;;;;;;5072726;28;20028;-67
2021/01/11 00:20:48;;;;;;;45.75;22.00;;;-5.40;99.90;;;;;;5072671;28;20020;-67
2021/01/11 00:23:14;;;;;;;46.03;21.60;;;-5.50;99.90;;;;;;5071457;28;20039;-68
2021/01/11 00:25:39;;;;;;;47.72;22.23;;;-5.50;99.90;;;;;;5072103;28;20056;-67
2021/01/11 00:28:05;;;;;;;47.03;21.63;;;-5.60;99.90;;;;;;5072322;28;20063;-67
2021/01/11 00:30:31;;;;;;;47.90;22.63;;;-5.60;99.90;;;;;;5072502;28;20035;-68
2021/01/11 00:32:56;;;;;;;49.40;23.10;;;-5.60;99.90;;;;;;5071744;28;20028;-66
2021/01/11 00:35:22;;;;;;;45.55;22.08;;;-5.60;99.90;;;;;;5072516;28;20482;-68
2021/01/11 00:37:47;;;;;;;47.53;22.13;;;-5.60;99.90;;;;;;5072047;28;20441;-67
2021/01/11 00:40:13;;;;;;;50.60;23.40;;;-5.60;99.90;;;;;;5071644;28;20031;-67
2021/01/11 00:42:39;;;;;;;52.88;24.27;;;-5.60;99.90;;;;;;5071527;28;20068;-66
2021/01/11 00:45:07;;;;;;;48.08;21.92;;;-5.60;99.90;;;;;;5072083;28;20604;-67
2021/01/11 00:47:40;;;;;;;40.08;20.13;;;-5.70;99.90;;;;;;5072144;28;20023;-67
2021/01/11 00:50:07;;;;;;;49.88;21.98;;;-5.60;99.90;;;;;;5071892;28;20028;-67
2021/01/11 00:52:36;;;;;;;50.67;22.35;;;-5.70;99.90;;;;;;5071587;28;20052;-66
2021/01/11 00:55:07;;;;;;;45.47;21.42;;;-5.70;99.90;;;;;;5071433;28;20028;-66
2021/01/11 00:57:33;;;;;;;49.33;23.67;;;-5.70;99.90;;;;;;5071872;28;20099;-67
2021/01/11 00:59:59;;;;;;;50.67;22.48;;;-5.70;99.90;;;;;;5073212;28;20542;-67
2021/01/11 01:02:25;;;;;;;56.20;24.67;;;-5.70;99.90;;;;;;5072959;28;20098;-67
2021/01/11 01:04:50;;;;;;;44.30;22.42;;;-5.70;99.90;;;;;;5071742;28;20528;-66
2021/01/11 01:07:16;;;;;;;47.33;23.48;;;-5.70;99.90;;;;;;5071862;28;20115;-67
2021/01/11 01:09:42;;;;;;;49.55;23.08;;;-5.40;99.90;;;;;;5072159;28;20050;-68
2021/01/11 01:12:07;;;;;;;47.65;22.73;;;-5.80;99.90;;;;;;5075403;28;20036;-67
2021/01/11 01:14:33;;;;;;;53.63;22.98;;;-5.80;99.90;;;;;;5072746;28;20032;-67
2021/01/11 01:16:59;;;;;;;46.85;23.05;;;-5.90;99.90;;;;;;5071862;28;20032;-67
2021/01/11 01:19:24;;;;;;;49.63;22.48;;;-5.90;99.90;;;;;;5071579;28;20020;-67
2021/01/11 01:21:50;;;;;;;42.83;20.40;;;-5.90;99.90;;;;;;5071993;28;20021;-68
2021/01/11 01:24:16;;;;;;;55.17;23.83;;;-5.90;99.90;;;;;;5071009;28;20066;-67
2021/01/11 01:26:41;;;;;;;51.38;22.10;;;-5.90;99.90;;;;;;5070774;28;20028;-67
2021/01/11 01:29:07;;;;;;;53.58;23.50;;;-5.90;99.90;;;;;;5071482;28;20024;-66
2021/01/11 01:31:33;;;;;;;48.42;22.10;;;-5.90;99.90;;;;;;5071302;28;20031;-67
2021/01/11 01:33:59;;;;;;;45.38;21.42;;;-5.90;99.90;;;;;;5068616;28;20534;-68
2021/01/11 01:36:24;;;;;;;45.45;23.15;;;-6.00;99.90;;;;;;5070651;28;20033;-66
2021/01/11 01:38:50;;;;;;;45.25;22.42;;;-6.00;99.90;;;;;;5071216;28;20024;-67
2021/01/11 01:41:16;;;;;;;54.22;23.83;;;-5.90;99.90;;;;;;5053207;28;20024;-67
2021/01/11 01:43:41;;;;;;;54.97;23.98;;;-6.00;99.90;;;;;;5070404;28;20024;-66
2021/01/11 01:46:21;;;;;;;50.80;23.63;;;-6.00;99.90;;;;;;5070864;28;20028;-67
2021/01/11 01:48:47;;;;;;;47.50;22.73;;;-6.10;99.90;;;;;;5070833;28;20424;-66
2021/01/11 01:51:13;;;;;;;51.40;21.67;;;-6.00;99.90;;;;;;5071002;28;20028;-67
2021/01/11 01:53:39;;;;;;;44.33;20.45;;;-6.10;99.90;;;;;;5070394;28;20546;-67
2021/01/11 01:56:05;;;;;;;48.67;22.60;;;-6.10;99.90;;;;;;5070573;28;20389;-67
2021/01/11 01:58:33;;;;;;;44.85;22.35;;;-6.10;99.90;;;;;;5070900;28;20106;-68
2021/01/11 02:00:58;;;;;;;48.05;21.92;;;-6.10;99.90;;;;;;5070765;28;20372;-68
2021/01/11 02:03:24;;;;;;;45.60;20.80;;;-6.10;99.90;;;;;;5069907;28;20058;-67
2021/01/11 02:05:50;;;;;;;42.30;19.55;;;-6.20;99.90;;;;;;5070865;28;20104;-66
2021/01/11 02:08:39;;;;;;;45.13;21.48;;;-6.20;99.90;;;;;;5070787;28;20028;-67
2021/01/11 02:11:15;;;;;;;42.03;20.65;;;-6.20;99.90;;;;;;5070430;28;20032;-67
2021/01/11 02:14:04;;;;;;;54.90;22.75;;;-6.30;99.90;;;;;;5069896;28;20025;-67
2021/01/11 02:16:43;;;;;;;41.05;19.15;;;-6.70;99.90;;;;;;5059815;28;20123;-66
2021/01/11 02:19:57;;;;;;;50.35;22.65;;;-6.40;99.90;;;;;;5070866;28;20039;-68
2021/01/11 02:23:00;;;;;;;48.67;21.80;;;-6.40;99.90;;;;;;5045298;28;20043;-67
2021/01/11 02:25:42;;;;;;;50.60;23.13;;;-6.30;99.90;;;;;;5066659;28;20047;-68
2021/01/11 02:28:23;;;;;;;52.15;22.90;;;-6.30;99.90;;;;;;5070744;28;20044;-68
2021/01/11 02:30:53;;;;;;;52.15;23.77;;;-6.30;99.90;;;;;;5070527;28;20024;-70
2021/01/11 02:33:19;;;;;;;55.00;24.05;;;-6.30;99.90;;;;;;5070010;28;20060;-67
2021/01/11 02:35:47;;;;;;;50.30;22.33;;;-6.30;99.90;;;;;;5070703;28;20189;-67
2021/01/11 02:38:19;;;;;;;48.83;22.20;;;-6.30;99.90;;;;;;5071445;28;20028;-66
2021/01/11 02:40:44;;;;;;;46.75;22.70;;;-6.30;99.90;;;;;;5074486;28;20029;-67
2021/01/11 02:43:11;;;;;;;50.53;22.13;;;-6.30;99.90;;;;;;5073847;28;20167;-67
2021/01/11 02:45:37;;;;;;;50.90;22.35;;;-6.40;99.90;;;;;;5074507;28;20150;-68
2021/01/11 02:48:20;;;;;;;50.13;23.38;;;-6.40;99.90;;;;;;5074502;28;20033;-68
2021/01/11 02:50:51;;;;;;;43.70;20.65;;;-6.40;99.90;;;;;;5074388;28;20131;-68
2021/01/11 02:53:28;;;;;;;49.70;22.23;;;-6.50;99.90;;;;;;5073363;28;20032;-68
2021/01/11 02:55:58;;;;;;;51.30;21.80;;;-6.50;99.90;;;;;;5074247;28;20035;-68
2021/01/11 02:59:04;;;;;;;47.28;21.38;;;-6.60;99.90;;;;;;5074475;28;20032;-69
2021/01/11 03:01:37;;;;;;;40.50;20.73;;;-6.60;99.90;;;;;;5074440;28;20064;-67
2021/01/11 03:04:04;;;;;;;46.08;20.90;;;-6.60;99.90;;;;;;5073520;28;20029;-68
2021/01/11 03:06:31;;;;;;;47.50;20.38;;;-6.60;99.90;;;;;;5074201;28;20166;-67
2021/01/11 03:09:07;;;;;;;47.13;21.35;;;-6.60;99.90;;;;;;5074301;28;20440;-67
2021/01/11 03:11:36;;;;;;;46.17;21.88;;;-6.60;99.90;;;;;;5074009;28;20027;-67
2021/01/11 03:14:05;;;;;;;49.55;22.25;;;-6.60;99.90;;;;;;5073471;28;20039;-67
2021/01/11 03:16:31;;;;;;;51.20;22.63;;;-6.60;99.90;;;;;;5074295;28;20025;-67
2021/01/11 03:18:56;;;;;;;47.63;21.80;;;-6.60;99.90;;;;;;5075018;28;20506;-68
2021/01/11 03:21:22;;;;;;;46.17;21.42;;;-6.60;99.90;;;;;;5074944;28;20055;-68
2021/01/11 03:23:48;;;;;;;47.20;21.02;;;-6.70;99.90;;;;;;5074824;28;20132;-67
2021/01/11 03:26:24;;;;;;;49.67;21.35;;;-6.70;99.90;;;;;;5074898;28;20027;-68
2021/01/11 03:28:50;;;;;;;43.60;20.88;;;-6.70;99.90;;;;;;5074446;28;20526;-69
2021/01/11 03:31:16;;;;;;;53.30;22.85;;;-6.70;99.90;;;;;;5078324;28;20056;-68
2021/01/11 03:33:41;;;;;;;48.53;22.08;;;-6.80;99.90;;;;;;5074397;28;20498;-68
2021/01/11 03:36:07;;;;;;;51.42;22.05;;;-6.80;99.90;;;;;;5074871;28;20028;-66
2021/01/11 03:38:33;;;;;;;48.83;22.45;;;-6.60;99.90;;;;;;5056000;28;20040;-67
2021/01/11 03:41:03;;;;;;;50.60;22.30;;;-6.70;99.90;;;;;;5073477;28;20103;-67
2021/01/11 03:43:30;;;;;;;49.50;22.80;;;-6.70;99.90;;;;;;5072543;28;20036;-66
2021/01/11 03:45:56;;;;;;;51.15;21.50;;;-6.70;99.90;;;;;;5073357;28;20150;-67
2021/01/11 03:48:22;;;;;;;47.40;21.38;;;-6.70;99.90;;;;;;5073425;28;20063;-68
2021/01/11 03:50:49;;;;;;;52.95;21.88;;;-6.70;99.90;;;;;;5072425;28;20056;-68
2021/01/11 03:53:14;;;;;;;47.80;22.23;;;-6.70;99.90;;;;;;5072503;28;20021;-68
2021/01/11 03:55:41;;;;;;;54.83;23.27;;;-6.70;99.90;;;;;;5072769;28;20051;-67
2021/01/11 03:58:08;;;;;;;52.75;22.63;;;-6.60;99.90;;;;;;5073038;28;20040;-67
2021/01/11 04:00:33;;;;;;;57.55;21.83;;;-6.70;99.90;;;;;;5073159;28;20032;-66
2021/01/11 04:02:59;;;;;;;51.35;22.95;;;-6.70;99.90;;;;;;5072061;28;20033;-67
2021/01/11 04:05:26;;;;;;;47.25;22.13;;;-6.70;99.90;;;;;;5072849;28;20036;-68
2021/01/11 04:07:52;;;;;;;49.80;22.30;;;-6.70;99.90;;;;;;5072862;28;20055;-68
2021/01/11 04:10:18;;;;;;;47.35;21.65;;;-6.80;99.90;;;;;;5072880;28;20033;-68
2021/01/11 04:12:44;;;;;;;45.75;21.08;;;-6.70;99.90;;;;;;5072257;28;20028;-68
2021/01/11 04:15:10;;;;;;;48.25;21.13;;;-6.80;99.90;;;;;;5054637;28;20033;-68
2021/01/11 04:17:36;;;;;;;47.10;20.98;;;-6.80;99.90;;;;;;5073154;28;20028;-67
2021/01/11 04:20:03;;;;;;;43.70;20.70;;;-6.80;99.90;;;;;;5074035;28;20021;-67
2021/01/11 04:22:29;;;;;;;48.58;20.60;;;-6.80;99.90;;;;;;5074275;28;20130;-68
2021/01/11 04:24:54;;;;;;;45.22;21.00;;;-6.80;99.90;;;;;;5071773;28;20028;-68
2021/01/11 04:27:21;;;;;;;52.22;21.83;;;-6.90;99.90;;;;;;5072447;28;20394;-68
2021/01/11 04:29:46;;;;;;;49.67;20.90;;;-6.80;99.90;;;;;;5072827;28;20032;-66
2021/01/11 04:32:12;;;;;;;46.55;21.20;;;-6.80;99.90;;;;;;5072496;28;20428;-67
2021/01/11 04:34:37;;;;;;;48.50;21.35;;;-7.00;99.90;;;;;;5071767;28;20525;-68
2021/01/11 04:37:06;;;;;;;48.50;21.63;;;-6.90;99.90;;;;;;5072242;28;20035;-68
2021/01/11 04:39:33;;;;;;;45.60;19.60;;;-6.90;99.90;;;;;;5072056;28;20027;-68
2021/01/11 04:42:02;;;;;;;48.53;21.10;;;-7.00;99.90;;;;;;5071866;28;20036;-67
2021/01/11 04:44:29;;;;;;;41.90;20.73;;;-7.00;99.90;;;;;;5071592;28;20044;-66
2021/01/11 04:46:56;;;;;;;44.55;20.10;;;-7.10;99.90;;;;;;5072036;28;20111;-67
2021/01/11 04:49:21;;;;;;;42.55;19.63;;;-7.10;99.90;;;;;;5072326;28;20090;-67
2021/01/11 04:51:48;;;;;;;41.45;20.58;;;-7.10;99.90;;;;;;5071978;28;20025;-67
2021/01/11 04:54:18;;;;;;;52.65;22.30;;;-7.10;99.90;;;;;;5060618;28;20025;-68
2021/01/11 04:56:47;;;;;;;45.03;19.83;;;-7.10;99.90;;;;;;5067231;28;20013;-68
2021/01/11 04:59:17;;;;;;;48.75;20.92;;;-7.10;99.90;;;;;;5053581;28;20104;-67
2021/01/11 05:01:43;;;;;;;48.30;21.80;;;-7.10;99.90;;;;;;5056128;28;20012;-67
2021/01/11 05:04:13;;;;;;;48.13;21.58;;;-7.20;99.90;;;;;;5070656;28;20042;-67
2021/01/11 05:06:45;;;;;;;53.33;22.80;;;-7.20;99.90;;;;;;5070802;28;20016;-67
2021/01/11 05:09:14;;;;;;;51.40;21.75;;;-7.10;99.90;;;;;;5071532;28;20024;-66
2021/01/11 05:11:40;;;;;;;52.97;23.08;;;-7.10;99.90;;;;;;5070854;28;20024;-67
2021/01/11 05:14:06;;;;;;;52.22;22.63;;;-7.10;99.90;;;;;;5050483;28;20070;-67
2021/01/11 05:16:32;;;;;;;53.65;23.60;;;-7.10;99.90;;;;;;5050695;28;20037;-67
2021/01/11 05:19:24;;;;;;;50.80;23.02;;;-7.10;99.90;;;;;;5051228;28;20036;-66
2021/01/11 05:21:51;;;;;;;;;;;-7.20;99.90;;;;;;5051823;28;20017;-67
2021/01/11 05:24:28;;;;;;;44.95;19.25;;;-7.20;99.90;;;;;;5068730;28;20281;-67
2021/01/11 05:26:58;;;;;;;51.03;21.27;;;-7.20;99.90;;;;;;5070216;28;20025;-67
2021/01/11 05:29:25;;;;;;;55.17;22.17;;;-7.10;99.90;;;;;;5071028;28;20533;-66
2021/01/11 05:31:54;;;;;;;48.00;21.38;;;-7.10;99.90;;;;;;5071024;28;20033;-68
2021/01/11 05:34:19;;;;;;;49.88;21.85;;;-7.20;99.90;;;;;;5052397;28;20029;-66
2021/01/11 05:36:46;;;;;;;43.80;21.30;;;-7.20;99.90;;;;;;5070264;28;20070;-67
2021/01/11 05:39:12;;;;;;;46.90;21.02;;;-7.20;99.90;;;;;;5070830;28;20113;-66
2021/01/11 05:41:42;;;;;;;52.08;20.98;;;-7.20;99.90;;;;;;5070550;28;20506;-67
2021/01/11 05:44:15;;;;;;;50.47;21.48;;;-7.20;99.90;;;;;;5048358;28;20032;-66
2021/01/11 05:46:42;;;;;;;44.58;21.35;;;-7.20;99.90;;;;;;5070094;28;20039;-67
2021/01/11 05:49:09;;;;;;;44.92;21.98;;;-7.30;99.90;;;;;;5063170;28;20383;-67
2021/01/11 05:51:36;;;;;;;44.53;20.50;;;-7.30;99.90;;;;;;5050456;28;20021;-67
2021/01/11 05:54:03;;;;;;;44.33;21.38;;;-7.30;99.90;;;;;;5066267;28;20032;-66
2021/01/11 05:56:53;;;;;;;44.60;20.70;;;-7.30;99.90;;;;;;5069978;28;20074;-66
2021/01/11 05:59:19;;;;;;;42.13;19.58;;;-7.40;99.90;;;;;;5070480;28;20478;-66
2021/01/11 06:01:45;;;;;;;51.50;22.13;;;-7.40;99.90;;;;;;5070200;28;20103;-66
2021/01/11 06:04:10;;;;;;;45.75;20.08;;;-7.40;99.90;;;;;;5069620;28;20067;-65
2021/01/11 06:06:36;;;;;;;41.97;20.05;;;-7.40;99.90;;;;;;5070006;28;20017;-66
2021/01/11 06:09:02;;;;;;;43.33;20.13;;;-7.40;99.90;;;;;;5070537;28;20023;-66
2021/01/11 06:11:28;;;;;;;48.45;20.25;;;-7.30;99.90;;;;;;5070014;28;20112;-66
2021/01/11 06:13:56;;;;;;;44.78;20.38;;;-7.40;99.90;;;;;;5068917;28;20100;-66
2021/01/11 06:16:24;;;;;;;45.70;21.42;;;-7.40;99.90;;;;;;5075717;28;20044;-69
2021/01/11 06:18:52;;;;;;;52.10;21.05;;;-7.30;99.90;;;;;;5072263;28;20020;-69
2021/01/11 06:21:21;;;;;;;50.53;22.90;;;-7.30;99.90;;;;;;5070800;28;20054;-69
2021/01/11 06:23:48;;;;;;;45.28;21.10;;;-7.30;99.90;;;;;;5069521;28;20032;-68
2021/01/11 06:26:33;;;;;;;47.50;20.83;;;-7.40;99.90;;;;;;5069707;28;20024;-69
2021/01/11 06:28:58;;;;;;;44.90;19.63;;;-7.30;99.90;;;;;;5070341;28;20367;-71
2021/01/11 06:31:29;;;;;;;43.50;20.35;;;-7.40;99.90;;;;;;5050016;28;20025;-69
2021/01/11 06:33:56;;;;;;;47.10;20.95;;;-7.30;99.90;;;;;;5049661;28;20017;-68
2021/01/11 06:36:29;;;;;;;50.38;21.08;;;-7.30;99.90;;;;;;5050023;28;20017;-67
2021/01/11 06:38:55;;;;;;;43.72;19.95;;;-7.30;99.90;;;;;;5050596;28;20056;-67
2021/01/11 06:41:27;;;;;;;50.15;19.50;;;-7.40;99.90;;;;;;5050497;28;20103;-66
2021/01/11 06:44:02;;;;;;;45.30;20.17;;;-7.40;99.90;;;;;;5049631;28;20021;-67
2021/01/11 06:46:28;;;;;;;51.08;21.02;;;-7.40;99.90;;;;;;5050144;28;20145;-68
2021/01/11 06:48:55;;;;;;;53.95;22.50;;;-7.40;99.90;;;;;;5056105;28;20411;-68
2021/01/11 06:51:34;;;;;;;47.30;21.42;;;-7.40;99.90;;;;;;5070603;28;20017;-69
2021/01/11 06:54:11;;;;;;;48.53;20.60;;;-7.40;99.90;;;;;;5070556;28;20037;-67
2021/01/11 06:56:37;;;;;;;51.22;20.85;;;-7.40;99.90;;;;;;5040740;28;20028;-68
2021/01/11 06:59:16;;;;;;;43.88;20.60;;;-7.40;99.90;;;;;;5051486;28;20021;-67
2021/01/11 07:01:43;;;;;;;51.53;21.58;;;-7.40;99.90;;;;;;5050739;28;20052;-66
2021/01/11 07:04:10;;;;;;;58.58;22.83;;;-7.40;99.90;;;;;;5050772;28;20014;-68
2021/01/11 07:06:40;;;;;;;54.60;22.92;;;-7.30;99.90;;;;;;5050258;28;20013;-68
2021/01/11 07:09:11;;;;;;;50.65;22.27;;;-7.30;99.90;;;;;;5050846;28;20367;-66
2021/01/11 07:11:42;;;;;;;50.42;23.63;;;-7.40;99.90;;;;;;5041650;28;20036;-68
2021/01/11 07:14:11;;;;;;;47.70;21.90;;;-7.30;99.90;;;;;;5071381;28;20024;-68
2021/01/11 07:17:03;;;;;;;50.08;22.85;;;-7.20;99.90;;;;;;5069613;28;20100;-66
2021/01/11 07:19:38;;;;;;;;;;;-7.00;99.90;;;;;;5049666;28;20178;-66
2021/01/11 07:22:04;;;;;;;47.15;20.83;;;-7.10;99.90;;;;;;5070979;28;19995;-66
2021/01/11 07:24:30;;;;;;;54.97;23.42;;;-7.10;99.90;;;;;;5072323;28;20508;-68
2021/01/11 07:26:56;;;;;;;53.95;22.70;;;-7.10;99.90;;;;;;5070862;28;20086;-68
2021/01/11 07:29:22;;;;;;;45.60;21.27;;;-7.10;99.90;;;;;;5074163;28;20100;-68
2021/01/11 07:31:49;;;;;;;51.80;23.90;;;-7.10;99.90;;;;;;5075806;28;20021;-67
2021/01/11 07:34:19;;;;;;;53.33;23.35;;;-7.10;99.90;;;;;;5064333;28;20029;-68
2021/01/11 07:36:45;;;;;;;50.17;22.30;;;-7.00;99.90;;;;;;5054023;28;20025;-68
2021/01/11 07:39:17;;;;;;;56.63;22.40;;;-6.90;99.90;;;;;;5054867;28;20501;-67
2021/01/11 07:41:56;;;;;;;;;;;-6.90;99.90;;;;;;5054618;28;20061;-67
2021/01/11 07:44:27;;;;;;;45.40;20.60;;;-6.90;99.90;;;;;;5072552;28;20586;-67
2021/01/11 07:46:52;;;;;;;50.40;22.50;;;-6.70;99.90;;;;;;5075145;28;20451;-67
2021/01/11 07:49:18;;;;;;;49.85;22.95;;;-6.70;99.90;;;;;;5057059;28;20052;-68
2021/01/11 07:51:46;;;;;;;50.47;21.52;;;-6.60;99.90;;;;;;5076286;28;20080;-68
2021/01/11 07:54:17;;;;;;;53.42;22.90;;;-6.10;99.90;;;;;;5074378;28;20029;-68
2021/01/11 07:56:43;;;;;;;39.88;18.73;;;-5.30;99.90;;;;;;5055338;28;20483;-68
2021/01/11 07:59:09;;;;;;;48.60;22.70;;;-4.50;99.90;;;;;;5073321;28;20021;-66
2021/01/11 08:01:38;;;;;;;48.67;22.92;;;-3.80;99.90;;;;;;5070079;28;20027;-66
2021/01/11 08:04:05;;;;;;;41.80;21.40;;;-3.00;99.90;;;;;;5061291;28;20475;-69
2021/01/11 08:06:50;;;;;;;41.67;21.80;;;-2.40;99.90;;;;;;5069502;28;20122;-67
2021/01/11 08:09:26;;;;;;;42.00;21.13;;;-2.60;99.90;;;;;;5073296;28;20041;-67
2021/01/11 08:12:15;;;;;;;36.67;20.42;;;-2.30;99.90;;;;;;5073183;28;20048;-68
2021/01/11 08:14:41;;;;;;;37.50;20.67;;;-1.40;99.90;;;;;;5072521;28;20035;-67
2021/01/11 08:17:17;;;;;;;42.08;21.27;;;-1.20;99.90;;;;;;5072954;28;20429;-68
2021/01/11 08:19:51;;;;;;;34.60;18.83;;;0.30;99.90;;;;;;5073225;28;20024;-68
2021/01/11 08:22:18;;;;;;;32.35;18.23;;;0.00;99.90;;;;;;5072842;28;20020;-68
2021/01/11 08:24:47;;;;;;;36.55;19.20;;;-1.00;99.90;;;;;;5071894;28;20063;-68
2021/01/11 08:27:25;;;;;;;32.55;18.02;;;-0.90;99.90;;;;;;5054416;28;20020;-66
2021/01/11 08:29:52;;;;;;;28.45;17.90;;;0.70;99.90;;;;;;5073116;28;20024;-68
2021/01/11 08:32:18;;;;;;;35.22;19.95;;;1.90;99.90;;;;;;5072719;28;20024;-68
2021/01/11 08:34:44;;;;;;;30.67;18.35;;;2.90;99.90;;;;;;5071993;28;20360;-65
2021/01/11 08:37:28;;;;;;;30.23;19.13;;;3.60;98.80;;;;;;5071712;28;20097;-69
2021/01/11 08:40:04;;;;;;;26.85;18.02;;;4.40;94.10;;;;;;5072715;28;20090;-68
2021/01/11 08:42:31;;;;;;;32.67;18.95;;;4.90;93.20;;;;;;5072499;28;20027;-68
2021/01/11 08:45:28;;;;;;;30.58;19.23;;;4.80;91.10;;;;;;5072320;28;20027;-68
2021/01/11 08:48:10;;;;;;;31.45;19.90;;;4.90;91.50;;;;;;5071960;28;20024;-66
2021/01/11 08:50:43;;;;;;;34.42;18.52;;;6.10;87.50;;;;;;5072006;28;20038;-67
2021/01/11 08:53:28;;;;;;;37.33;19.15;;;6.10;86.20;;;;;;5070922;28;20025;-68
2021/01/11 08:56:04;;;;;;;32.05;19.23;;;5.50;83.50;;;;;;5071429;28;20139;-67
2021/01/11 08:58:31;;;;;;;31.58;19.25;;;4.70;88.90;;;;;;5071797;28;20032;-67
2021/01/11 09:01:17;;;;;;;29.98;18.27;;;4.00;87.40;;;;;;5071661;28;20051;-68
2021/01/11 09:03:49;;;;;;;32.47;18.88;;;3.00;91.70;;;;;;5070947;28;20111;-69
2021/01/11 09:06:45;;;;;;;32.17;18.98;;;3.90;91.20;;;;;;5071522;28;20016;-65
2021/01/11 09:09:15;;;;;;;30.05;17.85;;;4.50;91.00;;;;;;5053597;28;20016;-66
2021/01/11 09:11:43;;;;;;;32.33;19.40;;;3.80;89.80;;;;;;5071392;28;20031;-67
2021/01/11 09:14:14;;;;;;;29.75;18.63;;;2.60;91.90;;;;;;5070666;28;20024;-68
2021/01/11 09:16:41;;;;;;;31.63;19.02;;;1.90;93.60;;;;;;5051687;28;20399;-66
2021/01/11 09:19:12;;;;;;;32.92;17.38;;;1.00;95.90;;;;;;5062581;28;20020;-66
2021/01/11 09:21:39;;;;;;;29.20;17.60;;;0.50;96.60;;;;;;5051565;28;20028;-67
2021/01/11 09:24:09;;;;;;;31.15;18.58;;;-1.20;99.90;;;;;;5050386;28;20347;-67
2021/01/11 09:26:36;;;;;;;30.90;18.40;;;-0.70;99.90;;;;;;5050857;28;20024;-65
2021/01/11 09:29:03;;;;;;;28.20;16.77;;;0.10;99.90;;;;;;5050900;28;20475;-65
2021/01/11 09:31:29;;;;;;;27.77;18.33;;;-0.10;99.90;;;;;;5051441;28;20112;-67
2021/01/11 09:33:54;;;;;;;32.17;18.60;;;1.10;99.90;;;;;;5050176;28;20031;-65
2021/01/11 09:36:21;;;;;;;30.13;17.98;;;2.10;98.10;;;;;;5051110;28;20025;-66
2021/01/11 09:38:47;;;;;;;27.48;18.02;;;3.80;95.00;;;;;;5050998;28;20436;-66
2021/01/11 09:41:14;;;;;;;26.25;17.45;;;5.90;91.20;;;;;;5051224;28;20107;-66
2021/01/11 09:43:41;;;;;;;28.10;17.98;;;6.50;85.10;;;;;;5050889;28;20067;-66
2021/01/11 09:46:07;;;;;;;28.98;17.42;;;6.80;85.40;;;;;;5052920;28;20029;-67
2021/01/11 09:48:32;;;;;;;26.85;18.17;;;7.80;82.30;;;;;;5056776;28;20055;-66
2021/01/11 09:50:58;;;;;;;26.65;17.00;;;9.50;77.20;;;;;;5051093;28;20083;-67
2021/01/11 09:53:24;;;;;;;24.80;18.05;;;10.20;70.20;;;;;;5050326;28;20040;-68
2021/01/11 09:55:49;;;;;;;23.80;17.38;;;11.20;65.70;;;;;;5050538;28;20033;-65
2021/01/11 09:58:17;;;;;;;27.05;18.40;;;12.30;63.50;;;;;;5050699;28;20090;-67
2021/01/11 10:00:42;;;;;;;25.00;17.73;;;10.90;60.90;;;;;;5066030;28;20538;-66
2021/01/11 10:03:09;;;;;;;23.42;16.35;;;10.20;63.80;;;;;;5071570;28;20032;-68
2021/01/11 10:05:35;;;;;;;28.58;18.23;;;9.40;64.20;;;;;;5071144;28;20017;-69
2021/01/11 10:08:01;;;;;;;29.85;18.35;;;8.40;69.30;;;;;;5067886;28;20031;-68
2021/01/11 10:10:27;;;;;;;25.20;17.92;;;9.20;67.50;;;;;;5070818;28;20032;-67
2021/01/11 10:12:53;;;;;;;23.75;17.73;;;10.50;63.80;;;;;;5069719;28;20023;-71
2021/01/11 10:15:19;;;;;;;23.35;18.88;;;8.80;66.40;;;;;;5070574;28;20028;-66
2021/01/11 10:17:45;;;;;;;24.25;17.88;;;8.60;66.90;;;;;;5070825;28;20025;-66
2021/01/11 10:20:11;;;;;;;24.02;17.77;;;8.30;68.70;;;;;;5070867;28;20024;-67
2021/01/11 10:22:38;;;;;;;23.40;19.08;;;9.70;66.30;;;;;;5070693;28;20025;-67
2021/01/11 10:25:05;;;;;;;27.35;19.50;;;11.40;62.00;;;;;;5071024;28;20017;-69
2021/01/11 10:27:31;;;;;;;25.23;17.73;;;12.50;58.50;;;;;;5070091;28;20450;-69
2021/01/11 10:29:57;;;;;;;21.13;17.85;;;11.80;57.80;;;;;;5070889;28;20100;-69
2021/01/11 10:32:22;;;;;;;22.75;18.13;;;12.20;59.00;;;;;;5071014;28;20104;-68
2021/01/11 10:34:48;;;;;;;24.38;18.65;;;12.50;57.10;;;;;;5070578;28;20486;-71
2021/01/11 10:37:13;;;;;;;21.88;16.55;;;11.90;58.60;;;;;;5076013;28;20032;-71
2021/01/11 10:39:39;;;;;;;19.48;16.73;;;11.60;76.70;;;;;;5072146;28;20050;-69
2021/01/11 10:42:05;;;;;;;20.98;16.60;;;11.70;64.10;;;;;;5070305;28;20493;-66
2021/01/11 10:44:31;;;;;;;21.73;18.20;;;11.60;60.40;;;;;;5068062;28;20035;-66
2021/01/11 10:47:01;;;;;;;21.58;18.20;;;13.60;56.10;;;;;;5071890;28;20040;-69
2021/01/11 10:49:28;;;;;;;21.38;18.13;;;14.90;53.30;;;;;;5073549;28;20028;-67
2021/01/11 10:51:57;;;;;;;24.83;19.08;;;13.80;53.80;;;;;;5070999;28;20105;-71
2021/01/11 10:54:27;;;;;;;23.83;17.27;;;15.20;53.00;;;;;;5052240;28;20021;-70
2021/01/11 10:56:53;;;;;;;22.45;17.55;;;16.20;49.80;;;;;;5069878;28;20025;-70
2021/01/11 10:59:20;;;;;;;20.15;15.98;;;17.00;48.60;;;;;;5071995;28;20017;-67
2021/01/11 11:01:48;;;;;;;21.10;16.52;;;15.10;48.90;;;;;;5075891;28;20027;-69
2021/01/11 11:04:14;;;;;;;19.63;16.13;;;14.60;49.40;;;;;;5056404;28;20463;-69
2021/01/11 11:06:39;;;;;;;18.20;16.08;;;15.30;49.30;;;;;;5074385;28;20040;-70
2021/01/11 11:09:05;;;;;;;17.50;15.60;;;16.50;48.30;;;;;;5056262;28;20039;-71
2021/01/11 11:11:31;;;;;;;15.75;14.05;;;16.80;46.10;;;;;;5074069;28;20028;-71
2021/01/11 11:13:56;;;;;;;20.80;16.30;;;15.40;46.70;;;;;;5055915;28;20052;-71
2021/01/11 11:16:22;;;;;;;19.70;15.75;;;14.80;50.20;;;;;;5074256;28;20021;-71
2021/01/11 11:18:48;;;;;;;19.23;16.10;;;13.90;49.30;;;;;;5074268;28;20431;-71
2021/01/11 11:21:14;;;;;;;16.00;14.30;;;13.30;50.90;;;;;;5074329;28;20157;-70
2021/01/11 11:23:40;;;;;;;17.63;15.63;;;12.20;52.80;;;;;;5073966;28;20028;-70
2021/01/11 11:26:07;;;;;;;16.77;14.27;;;12.90;53.00;;;;;;5044025;28;20056;-69
2021/01/11 11:28:34;;;;;;;20.90;14.77;;;13.30;52.60;;;;;;5054266;28;20025;-70
2021/01/11 11:31:00;;;;;;;17.27;14.45;;;12.80;51.60;;;;;;5036251;28;20027;-69
2021/01/11 11:33:26;;;;;;;18.48;16.00;;;13.80;51.30;;;;;;5053620;28;20470;-71
2021/01/11 11:35:52;;;;;;;18.70;15.63;;;15.50;48.40;;;;;;5054031;28;20082;-68
2021/01/11 11:38:19;;;;;;;20.60;16.10;;;13.60;50.60;;;;;;5053733;28;20025;-69
2021/01/11 11:40:45;;;;;;;17.52;14.60;;;12.30;53.10;;;;;;5053886;28;20021;-69
2021/01/11 11:43:11;;;;;;;19.00;15.80;;;10.70;55.70;;;;;;5053004;28;20017;-67
2021/01/11 11:45:37;;;;;;;18.50;15.23;;;10.40;56.90;;;;;;5053864;28;20045;-68
2021/01/11 11:48:03;;;;;;;21.75;16.17;;;10.10;57.80;;;;;;5054155;28;20423;-68
2021/01/11 11:50:28;;;;;;;23.23;16.77;;;10.30;57.20;;;;;;5053534;28;20031;-68
2021/01/11 11:52:54;;;;;;;20.95;16.67;;;9.30;58.50;;;;;;5035374;28;20033;-70
2021/01/11 11:55:20;;;;;;;23.08;17.00;;;8.20;60.70;;;;;;5053385;28;20075;-67
2021/01/11 11:57:45;;;;;;;27.38;17.40;;;7.10;64.60;;;;;;5053380;28;20471;-67
2021/01/11 12:00:13;;;;;;;23.20;15.55;;;6.20;69.10;;;;;;5064304;28;20525;-67
2021/01/11 12:02:43;;;;;;;22.30;13.85;;;6.70;68.30;;;;;;5072903;28;20052;-68
2021/01/11 12:05:13;;;;;;;18.70;14.43;;;9.60;62.10;;;;;;5073565;28;20021;-67
2021/01/11 12:07:39;;;;;;;19.08;14.32;;;12.30;55.70;;;;;;5055323;28;20029;-69
2021/01/11 12:10:07;;;;;;;19.77;14.73;;;14.50;51.60;;;;;;5055965;28;20385;-69
2021/01/11 12:12:33;;;;;;;15.40;13.45;;;14.40;50.20;;;;;;5072401;28;20032;-67
2021/01/11 12:15:00;;;;;;;17.38;13.68;;;13.70;51.70;;;;;;5073088;28;20028;-69
2021/01/11 12:17:26;;;;;;;19.75;14.98;;;13.20;50.20;;;;;;5073497;28;20056;-68
2021/01/11 12:19:52;;;;;;;23.05;14.95;;;14.00;52.50;;;;;;5055299;28;20028;-67
2021/01/11 12:22:18;;;;;;;20.50;14.63;;;14.20;49.80;;;;;;5073280;28;20028;-68
2021/01/11 12:24:43;;;;;;;20.42;14.40;;;14.00;49.60;;;;;;5072952;28;20024;-67
2021/01/11 12:27:09;;;;;;;19.55;14.18;;;13.00;51.90;;;;;;5072698;28;20065;-67
2021/01/11 12:29:35;;;;;;;19.55;15.07;;;11.70;53.30;;;;;;5073129;28;20032;-68
2021/01/11 12:32:06;;;;;;;26.63;15.90;;;10.80;55.30;;;;;;5072836;28;20025;-68
2021/01/11 12:34:43;;;;;;;17.38;14.07;;;10.30;56.90;;;;;;5071914;28;20064;-68
2021/01/11 12:37:16;;;;;;;20.38;14.93;;;9.90;57.30;;;;;;5072458;28;20025;-67